X  Sluiten METAR luchtvaart weer gegevens      EHRD Rotterdam The Hague Airport
Temperatuur
15°C Temperatuur
13°C Dauwpunt
88% Vochtigheid



Wind
5 KM/U
3 MPH
1 M/S
3 KTS



230°
ZW
Huidig weer

Helder Helder
Luchtdruk 1017.92 (hPa) - 30.06 (inHg)
Zicht 6.2 (mijl) - 10 (km)
Vliegveld
Vliegveld code EHRD

Locatie : Rotterdam The Hague Airport
Afstand: 14 (km)

Metar:
EHRD 022325Z AUTO 23003KT 9999 NSC 15/13 Q1018 NOSIG

Tijd: 03-07-2022 01:25 CEST